Time;durP1;ratioP1;P1;durP2;ratioP2;P2;SDS_P1;SDS_P2;PMS_P1;PMS_P2;Temp;Humidity;BMP_temperature;BMP_pressure;BME280_temperature;BME280_humidity;BME280_pressure;Samples;Min_cycle;Max_cycle;Signal;HPM_P1;HPM_P2
2022/04/15 00:02:06;;;;;;;0.38;0.32;;;;;;;7.57;61.17;95114.94;5031000;28;20295;-73
2022/04/15 00:04:34;;;;;;;0.30;0.30;;;;;;;7.60;62.29;95110.84;5031057;28;20219;-73
2022/04/15 00:07:03;;;;;;;0.22;0.22;;;;;;;7.63;63.64;95111.06;5030368;28;20286;-74
2022/04/15 00:09:31;;;;;;;0.32;0.32;;;;;;;7.63;61.19;95105.66;5030806;28;20205;-74
2022/04/15 00:12:00;;;;;;;1.00;0.85;;;;;;;7.55;61.81;95113.63;5030133;28;20252;-75
2022/04/15 00:14:27;;;;;;;0.40;0.40;;;;;;;7.51;62.17;95113.44;5030659;28;20205;-73
2022/04/15 00:16:54;;;;;;;0.93;0.93;;;;;;;7.60;61.79;95117.03;5030804;28;20201;-74
2022/04/15 00:19:23;;;;;;;2.63;1.95;;;;;;;7.49;62.26;95113.72;5030060;28;20201;-74
2022/04/15 00:21:50;;;;;;;3.50;0.82;;;;;;;7.47;61.95;95113.22;5030632;28;20201;-73
2022/04/15 00:24:18;;;;;;;0.30;0.30;;;;;;;7.39;61.95;95110.38;5038712;28;20265;-73
2022/04/15 00:26:45;;;;;;;0.60;0.60;;;;;;;7.32;62.07;95115.38;5034652;28;20235;-73
2022/04/15 00:29:12;;;;;;;0.55;0.55;;;;;;;7.32;64.48;95116.16;5030492;28;20204;-73
2022/04/15 00:31:39;;;;;;;0.90;0.77;;;;;;;7.32;63.05;95120.75;5033932;28;20203;-74
2022/04/15 00:34:06;;;;;;;1.52;1.42;;;;;;;7.27;63.54;95118.94;5040901;28;20219;-74
2022/04/15 00:36:32;;;;;;;1.70;0.68;;;;;;;7.32;64.49;95115.38;5030338;28;20208;-73
2022/04/15 00:38:59;;;;;;;1.00;1.00;;;;;;;7.28;62.99;95120.53;5030672;28;20208;-73
2022/04/15 00:41:28;;;;;;;1.33;1.00;;;;;;;7.27;62.16;95118.13;5030498;28;20200;-73
2022/04/15 00:43:55;;;;;;;0.60;0.60;;;;;;;7.28;61.28;95114.34;5029644;28;20243;-73
2022/04/15 00:46:22;;;;;;;0.45;0.45;;;;;;;7.26;61.31;95116.53;5030269;28;20227;-74
2022/04/15 00:48:49;;;;;;;1.00;0.95;;;;;;;7.12;61.96;95117.28;5030342;28;20543;-74
2022/04/15 00:51:16;;;;;;;0.45;0.45;;;;;;;7.17;63.15;95118.31;5032918;28;20200;-74
2022/04/15 00:53:45;;;;;;;0.88;0.88;;;;;;;7.23;62.40;95111.75;5033323;28;20208;-74
2022/04/15 00:56:14;;;;;;;0.70;0.70;;;;;;;7.20;61.33;95112.34;5033852;28;20659;-73
2022/04/15 00:58:43;;;;;;;0.30;0.30;;;;;;;7.14;61.54;95119.69;5033743;28;20205;-74
2022/04/15 01:01:10;;;;;;;0.68;0.68;;;;;;;7.08;61.85;95118.19;5033867;28;20200;-73
2022/04/15 01:03:38;;;;;;;0.82;0.82;;;;;;;7.08;62.13;95116.28;5033762;28;20716;-72
2022/04/15 01:06:07;;;;;;;0.65;0.65;;;;;;;7.10;63.27;95124.88;5033879;28;20286;-73
2022/04/15 01:08:38;;;;;;;1.60;1.30;;;;;;;6.98;62.54;95127.19;5033543;28;20619;-72
2022/04/15 01:11:07;;;;;;;1.27;1.17;;;;;;;7.00;63.91;95125.00;5019948;28;20738;-72
2022/04/15 01:13:38;;;;;;;0.77;0.73;;;;;;;7.00;63.15;95130.41;5032797;28;20699;-72
2022/04/15 01:16:07;;;;;;;0.57;0.57;;;;;;;7.03;64.48;95129.81;5033826;28;20192;-73
2022/04/15 01:18:34;;;;;;;0.30;0.30;;;;;;;6.96;64.59;95123.22;5033571;28;20291;-73
2022/04/15 01:21:01;;;;;;;0.65;0.50;;;;;;;6.91;64.96;95124.09;5032875;28;20200;-73
2022/04/15 01:23:30;;;;;;;1.10;0.93;;;;;;;7.03;64.31;95124.44;5034241;28;20231;-73
2022/04/15 01:25:57;;;;;;;0.40;0.40;;;;;;;7.04;63.06;95120.66;5043480;28;20288;-73
2022/04/15 01:28:24;;;;;;;0.60;0.60;;;;;;;6.91;63.33;95116.00;5033386;28;20238;-73
2022/04/15 01:30:51;;;;;;;0.60;0.60;;;;;;;6.93;64.13;95113.81;5033186;28;20205;-73
2022/04/15 01:33:18;;;;;;;0.70;0.70;;;;;;;6.94;62.95;95115.44;5035699;28;20756;-73
2022/04/15 01:35:45;;;;;;;0.73;0.73;;;;;;;6.94;64.21;95110.03;5042996;28;20209;-73
2022/04/15 01:38:14;;;;;;;0.30;0.30;;;;;;;6.99;62.47;95107.25;5032213;28;20228;-73
2022/04/15 01:40:43;;;;;;;0.20;0.20;;;;;;;7.09;61.35;95100.94;5032657;28;20569;-73
2022/04/15 01:43:10;;;;;;;0.30;0.30;;;;;;;7.06;61.84;95102.31;5032896;28;20244;-73
2022/04/15 01:45:37;;;;;;;0.30;0.30;;;;;;;6.75;63.59;95093.09;5032794;28;20278;-75
2022/04/15 01:48:05;;;;;;;0.45;0.45;;;;;;;6.77;63.36;95091.72;5032820;28;20260;-74
2022/04/15 01:50:32;;;;;;;0.45;0.45;;;;;;;6.95;61.18;95094.69;5032165;28;20212;-73
2022/04/15 01:52:59;;;;;;;1.25;0.90;;;;;;;6.79;62.53;95091.41;5032788;28;20200;-74
2022/04/15 01:55:26;;;;;;;0.40;0.40;;;;;;;6.80;66.98;95093.03;5032448;28;20831;-74
2022/04/15 01:57:55;;;;;;;6.88;0.77;;;;;;;6.76;67.89;95092.00;5033046;28;20240;-74
2022/04/15 02:00:22;;;;;;;0.52;0.52;;;;;;;6.66;66.07;95097.53;5032930;28;20200;-73
2022/04/15 02:02:49;;;;;;;1.48;0.80;;;;;;;6.70;67.35;95093.16;5038512;28;20199;-74
2022/04/15 02:05:16;;;;;;;1.23;0.95;;;;;;;6.66;66.55;95090.25;5040276;28;20213;-74
2022/04/15 02:07:43;;;;;;;0.65;0.65;;;;;;;6.58;64.70;95095.47;5032656;28;20207;-74
2022/04/15 02:10:11;;;;;;;0.68;0.45;;;;;;;6.54;65.24;95084.50;5032378;28;20228;-74
2022/04/15 02:12:38;;;;;;;0.13;0.13;;;;;;;6.45;66.33;95088.94;5032563;28;20200;-74
2022/04/15 02:15:08;;;;;;;0.40;0.40;;;;;;;6.42;67.01;95090.31;5032121;28;20204;-74
2022/04/15 02:17:35;;;;;;;0.40;0.40;;;;;;;6.31;66.24;95086.16;5019539;28;20228;-74
2022/04/15 02:20:01;;;;;;;0.30;0.30;;;;;;;6.12;67.17;95092.59;5032260;28;20630;-74
2022/04/15 02:22:28;;;;;;;0.75;0.75;;;;;;;6.12;67.39;95088.03;5031939;28;20208;-74
2022/04/15 02:24:56;;;;;;;1.15;1.02;;;;;;;6.27;68.27;95087.84;5044572;28;20199;-74
2022/04/15 02:27:22;;;;;;;0.52;0.52;;;;;;;6.36;69.74;95086.09;5031734;28;20615;-74
2022/04/15 02:29:49;;;;;;;2.03;1.20;;;;;;;6.38;68.15;95089.31;5032378;28;20224;-74
2022/04/15 02:32:18;;;;;;;0.47;0.47;;;;;;;6.33;66.21;95089.34;5032223;28;20204;-73
2022/04/15 02:34:44;;;;;;;0.30;0.30;;;;;;;6.09;67.95;95095.88;5033699;28;20612;-74
2022/04/15 02:37:11;;;;;;;1.45;1.35;;;;;;;6.06;68.92;95094.53;5043328;28;20231;-74
2022/04/15 02:39:38;;;;;;;0.32;0.30;;;;;;;6.15;69.58;95097.41;5032108;28;20617;-75
2022/04/15 02:42:05;;;;;;;0.90;0.90;;;;;;;6.17;69.80;95089.84;5031805;28;20232;-74
2022/04/15 02:44:32;;;;;;;0.32;0.32;;;;;;;6.25;67.84;95090.00;5032026;28;20230;-74
2022/04/15 02:46:59;;;;;;;0.30;0.30;;;;;;;6.17;68.50;95090.63;5031307;28;20721;-74
2022/04/15 02:49:28;;;;;;;2.15;0.88;;;;;;;6.14;68.56;95077.78;5031626;28;20201;-74
2022/04/15 02:51:56;;;;;;;0.40;0.40;;;;;;;6.23;69.70;95088.69;5031924;28;20311;-74
2022/04/15 02:54:23;;;;;;;0.55;0.55;;;;;;;6.28;68.36;95099.41;5031443;28;20217;-74
2022/04/15 02:56:50;;;;;;;0.88;0.55;;;;;;;6.20;68.13;95094.63;5041120;28;20231;-74
2022/04/15 02:59:17;;;;;;;0.68;0.68;;;;;;;6.18;69.89;95103.00;5034730;28;20204;-74
2022/04/15 03:01:46;;;;;;;0.50;0.50;;;;;;;6.16;69.70;95099.78;5031879;28;20235;-74
2022/04/15 03:04:12;;;;;;;2.78;1.73;;;;;;;6.14;69.95;95099.31;5031598;28;20250;-73
2022/04/15 03:06:41;;;;;;;0.32;0.32;;;;;;;6.02;69.84;95102.38;5031377;28;20211;-74
2022/04/15 03:09:08;;;;;;;0.65;0.65;;;;;;;6.04;70.00;95099.41;5031727;28;20204;-74
2022/04/15 03:11:37;;;;;;;0.60;0.60;;;;;;;6.03;70.38;95101.28;5031399;28;20769;-74
2022/04/15 03:14:05;;;;;;;1.83;1.27;;;;;;;5.99;69.27;95096.78;5031136;28;20282;-74
2022/04/15 03:16:32;;;;;;;0.55;0.55;;;;;;;6.04;67.72;95099.41;5031196;28;20291;-74
2022/04/15 03:18:59;;;;;;;0.10;0.10;;;;;;;6.05;68.63;95098.31;5031187;28;20566;-74
2022/04/15 03:21:26;;;;;;;0.20;0.20;;;;;;;6.01;68.14;95095.38;5031468;28;20207;-74
2022/04/15 03:23:54;;;;;;;1.52;0.40;;;;;;;5.98;67.84;95098.69;5035932;28;20195;-74
2022/04/15 03:26:22;;;;;;;0.65;0.57;;;;;;;5.94;67.50;95091.47;5051083;28;20204;-74
2022/04/15 03:28:49;;;;;;;1.63;1.50;;;;;;;5.89;67.58;95096.88;5031461;28;20303;-74
2022/04/15 03:31:16;;;;;;;1.20;0.95;;;;;;;5.78;68.44;95092.69;5030571;28;20211;-74
2022/04/15 03:33:43;;;;;;;0.50;0.50;;;;;;;5.79;69.42;95096.97;5030882;28;20196;-74
2022/04/15 03:36:10;;;;;;;2.00;1.27;;;;;;;5.77;68.94;95096.47;5031009;28;20200;-74
2022/04/15 03:38:37;;;;;;;2.10;1.58;;;;;;;5.79;69.15;95110.41;5030923;28;20235;-74
2022/04/15 03:41:05;;;;;;;0.73;0.73;;;;;;;5.79;69.58;95105.03;5030917;28;20219;-74
2022/04/15 03:43:32;;;;;;;0.90;0.60;;;;;;;5.82;69.33;95107.16;5030024;28;20248;-74
2022/04/15 03:45:59;;;;;;;1.95;1.58;;;;;;;5.82;69.16;95104.47;5030512;28;20227;-74
2022/04/15 03:48:26;;;;;;;0.73;0.73;;;;;;;5.83;69.43;95119.53;5030548;28;20888;-74
2022/04/15 03:50:54;;;;;;;1.65;1.20;;;;;;;5.70;69.47;95108.38;5031354;28;20196;-74
2022/04/15 03:53:21;;;;;;;1.50;1.40;;;;;;;5.74;69.11;95107.81;5043128;28;20565;-74
2022/04/15 03:55:48;;;;;;;0.73;0.70;;;;;;;5.78;69.12;95116.88;5029734;28;20208;-74
2022/04/15 03:58:16;;;;;;;0.43;0.43;;;;;;;5.88;69.66;95111.38;5030157;28;20228;-74
2022/04/15 04:00:44;;;;;;;0.77;0.77;;;;;;;6.13;68.90;95116.53;5029888;28;20220;-73
2022/04/15 04:03:11;;;;;;;0.85;0.85;;;;;;;6.34;68.26;95111.69;5031108;28;20204;-74
2022/04/15 04:05:38;;;;;;;1.65;1.55;;;;;;;6.67;66.89;95109.91;5031056;28;20204;-74
2022/04/15 04:08:05;;;;;;;1.98;1.85;;;;;;;6.88;65.75;95111.19;5030576;28;20200;-74
2022/04/15 04:10:33;;;;;;;0.60;0.60;;;;;;;7.24;64.60;95113.34;5030362;28;20231;-74
2022/04/15 04:13:00;;;;;;;0.77;0.77;;;;;;;7.62;63.34;95120.25;5030777;28;20200;-74
2022/04/15 04:15:29;;;;;;;0.35;0.35;;;;;;;7.61;62.62;95110.56;5030875;28;20205;-74
2022/04/15 04:17:55;;;;;;;0.85;0.85;;;;;;;7.77;61.73;95114.59;5030275;28;20708;-74
2022/04/15 04:20:23;;;;;;;0.43;0.38;;;;;;;8.06;61.52;95114.28;5030050;28;20211;-76
2022/04/15 04:22:50;;;;;;;1.00;0.90;;;;;;;8.30;60.50;95103.31;5029754;28;20219;-74
2022/04/15 04:25:17;;;;;;;2.05;1.00;;;;;;;8.26;61.13;95110.41;5044435;28;20214;-74
2022/04/15 04:27:44;;;;;;;0.28;0.28;;;;;;;8.87;60.04;95114.53;5034331;28;20208;-73
2022/04/15 04:30:13;;;;;;;1.63;1.05;;;;;;;9.75;57.37;95099.41;5034098;28;20208;-74
2022/04/15 04:32:42;;;;;;;0.77;0.75;;;;;;;10.68;55.39;95110.13;5033929;28;20272;-74
2022/04/15 04:35:09;;;;;;;1.55;1.45;;;;;;;11.10;54.06;95097.72;5034389;28;20196;-74
2022/04/15 04:37:36;;;;;;;4.05;2.28;;;;;;;12.20;51.28;95109.84;5034314;28;20228;-74
2022/04/15 04:40:04;;;;;;;2.63;1.38;;;;;;;12.75;49.22;95102.38;5034121;28;20651;-74
2022/04/15 04:42:31;;;;;;;0.45;0.45;;;;;;;12.99;48.44;95103.63;5033808;28;20236;-74
2022/04/15 04:44:58;;;;;;;6.80;1.83;;;;;;;13.71;46.05;95092.34;5033696;28;20237;-74
2022/04/15 04:47:25;;;;;;;0.98;0.98;;;;;;;14.56;44.60;95083.53;5034425;28;20216;-74
2022/04/15 04:49:55;;;;;;;2.17;1.42;;;;;;;14.64;44.01;95090.78;5033862;28;20204;-74
2022/04/15 04:52:23;;;;;;;19.52;1.10;;;;;;;14.98;43.38;95094.16;5034565;28;20201;-75
2022/04/15 04:54:50;;;;;;;5.13;2.75;;;;;;;14.33;44.80;95101.44;5033878;28;20567;-74
2022/04/15 04:57:18;;;;;;;2.17;1.27;;;;;;;15.14;43.49;95097.78;5033439;28;20201;-75
2022/04/15 04:59:45;;;;;;;2.58;1.20;;;;;;;15.72;42.41;95095.53;5033726;28;20236;-75
2022/04/15 05:02:12;;;;;;;1.73;1.33;;;;;;;16.42;40.32;95095.81;5033762;28;20209;-75
2022/04/15 05:04:40;;;;;;;2.50;1.58;;;;;;;16.31;40.02;95090.88;5033837;28;20228;-75
2022/04/15 05:07:08;;;;;;;4.63;1.55;;;;;;;16.88;38.44;95086.03;5033850;28;20254;-75
2022/04/15 05:09:35;;;;;;;1.95;1.77;;;;;;;17.32;37.37;95089.34;5033602;28;20303;-75
2022/04/15 05:12:02;;;;;;;3.53;1.63;;;;;;;17.55;36.46;95087.47;5033708;28;20386;-74
2022/04/15 05:14:29;;;;;;;3.80;2.58;;;;;;;17.89;36.16;95087.78;5033868;28;20208;-75
2022/04/15 05:16:56;;;;;;;3.08;2.05;;;;;;;18.65;34.96;95088.75;5033470;28;20205;-74
2022/04/15 05:19:23;;;;;;;2.30;1.73;;;;;;;19.68;32.28;95074.53;5033265;28;20240;-75
2022/04/15 05:21:50;;;;;;;8.45;4.25;;;;;;;19.19;33.27;95082.91;5033468;28;20934;-75
2022/04/15 05:24:18;;;;;;;9.30;4.25;;;;;;;18.97;33.62;95097.50;5041780;28;20265;-75
2022/04/15 05:26:45;;;;;;;7.70;3.97;;;;;;;18.81;33.37;95089.41;5038142;28;20200;-74
2022/04/15 05:29:12;;;;;;;4.50;3.35;;;;;;;19.49;31.92;95082.97;5032948;28;20205;-74
2022/04/15 05:31:39;;;;;;;6.20;3.72;;;;;;;18.66;33.29;95079.38;5033378;28;20201;-75
2022/04/15 05:34:06;;;;;;;9.00;4.40;;;;;;;17.75;34.39;95091.84;5032817;28;20200;-75
2022/04/15 05:36:33;;;;;;;8.25;4.32;;;;;;;17.83;34.14;95090.03;5032200;28;20675;-75
2022/04/15 05:39:00;;;;;;;17.63;5.22;;;;;;;18.03;33.77;95090.81;5033380;28;20236;-76
2022/04/15 05:41:28;;;;;;;7.13;4.10;;;;;;;18.28;33.43;95092.03;5033140;28;20629;-76
2022/04/15 05:43:57;;;;;;;6.65;3.83;;;;;;;18.81;32.54;95081.97;5032827;28;20734;-75
2022/04/15 05:46:24;;;;;;;12.48;4.47;;;;;;;18.87;32.43;95079.69;5019476;28;20228;-75
2022/04/15 05:48:51;;;;;;;13.05;4.28;;;;;;;18.92;32.25;95076.63;5033154;28;20205;-76
2022/04/15 05:51:21;;;;;;;7.15;4.03;;;;;;;18.44;32.96;95079.00;5032245;28;20231;-75
2022/04/15 05:53:48;;;;;;;6.90;4.35;;;;;;;19.61;31.11;95068.19;5032710;28;20208;-76
2022/04/15 05:56:16;;;;;;;7.03;3.63;;;;;;;18.63;31.97;95075.41;5032553;28;20204;-75
2022/04/15 05:58:44;;;;;;;4.20;3.00;;;;;;;18.73;31.87;95079.47;5032543;28;20710;-73
2022/04/15 06:01:11;;;;;;;8.25;3.88;;;;;;;18.46;32.60;95087.63;5032100;28;20219;-76
2022/04/15 06:03:38;;;;;;;4.95;3.72;;;;;;;19.54;31.25;95073.59;5032421;28;20207;-74
2022/04/15 06:06:06;;;;;;;5.65;3.40;;;;;;;20.02;29.75;95066.28;5031641;28;20738;-79
2022/04/15 06:08:33;;;;;;;4.75;3.50;;;;;;;19.96;29.67;95068.56;5032473;28;20224;-75
2022/04/15 06:11:00;;;;;;;4.68;2.90;;;;;;;20.39;29.27;95069.81;5032272;28;20204;-76
2022/04/15 06:13:27;;;;;;;5.85;3.28;;;;;;;21.87;27.82;95058.16;5043968;28;20211;-76
2022/04/15 06:15:57;;;;;;;4.43;2.60;;;;;;;22.90;26.48;95063.13;5032593;28;20228;-76
2022/04/15 06:18:25;;;;;;;7.15;2.97;;;;;;;21.75;27.52;95061.28;5032192;28;20226;-76
2022/04/15 06:20:53;;;;;;;6.45;3.20;;;;;;;22.04;27.12;95061.41;5019188;28;20208;-75
2022/04/15 06:23:20;;;;;;;5.40;2.95;;;;;;;21.73;27.44;95080.19;5031838;28;20204;-75
2022/04/15 06:25:47;;;;;;;5.93;3.15;;;;;;;23.11;26.22;95065.84;5030698;28;20192;-76
2022/04/15 06:28:14;;;;;;;6.07;3.55;;;;;;;21.82;27.69;95071.56;5031210;28;20196;-75
2022/04/15 06:30:41;;;;;;;5.72;3.45;;;;;;;21.53;28.32;95070.66;5031877;28;20208;-76
2022/04/15 06:33:10;;;;;;;5.82;3.78;;;;;;;23.06;26.84;95063.50;5033025;28;20567;-76
2022/04/15 06:35:37;;;;;;;9.10;3.97;;;;;;;20.06;30.05;95064.38;5043846;28;20208;-75
2022/04/15 06:38:04;;;;;;;6.35;3.63;;;;;;;21.02;29.03;95063.25;5031643;28;20228;-75
2022/04/15 06:40:31;;;;;;;7.97;4.13;;;;;;;21.82;28.05;95061.31;5039717;28;20212;-76
2022/04/15 06:42:58;;;;;;;6.53;3.55;;;;;;;23.29;26.15;95041.72;5036374;28;20231;-76
2022/04/15 06:45:25;;;;;;;6.35;4.05;;;;;;;23.97;25.46;95039.50;5031271;28;20270;-76
2022/04/15 06:47:53;;;;;;;6.63;3.17;;;;;;;21.63;27.74;95061.63;5031288;28;20208;-78
2022/04/15 06:50:21;;;;;;;4.30;3.13;;;;;;;22.44;27.01;95047.28;5031705;28;20201;-76
2022/04/15 06:52:49;;;;;;;4.80;2.83;;;;;;;21.88;27.28;95054.22;5031027;28;20200;-76
2022/04/15 06:55:16;;;;;;;5.25;3.47;;;;;;;21.57;27.68;95063.19;5031432;28;20201;-76
2022/04/15 06:57:43;;;;;;;5.05;3.45;;;;;;;22.45;26.73;95048.88;5031507;28;20204;-75
2022/04/15 07:00:13;;;;;;;4.75;3.05;;;;;;;22.19;26.58;95052.78;5031551;28;20235;-78
2022/04/15 07:02:41;;;;;;;4.05;2.65;;;;;;;23.42;25.54;95044.06;5031237;28;20215;-76
2022/04/15 07:05:09;;;;;;;5.13;2.78;;;;;;;22.76;25.84;95049.28;5031833;28;20204;-76
2022/04/15 07:07:38;;;;;;;5.18;3.00;;;;;;;21.96;27.04;95055.06;5030751;28;20710;-75
2022/04/15 07:10:06;;;;;;;7.82;3.70;;;;;;;23.01;25.76;95041.78;5031611;28;20223;-74
2022/04/15 07:12:33;;;;;;;6.70;3.95;;;;;;;22.41;26.27;95048.09;5031580;28;20208;-75
2022/04/15 07:15:00;;;;;;;5.47;3.22;;;;;;;21.95;27.18;95043.25;5031329;28;20200;-77
2022/04/15 07:17:28;;;;;;;5.18;3.30;;;;;;;21.88;27.36;95051.47;5031272;28;20201;-75
2022/04/15 07:19:55;;;;;;;6.20;3.45;;;;;;;21.46;27.98;95048.56;5043410;28;20239;-74
2022/04/15 07:22:22;;;;;;;6.57;3.10;;;;;;;20.53;29.00;95053.44;5031881;28;20574;-74
2022/04/15 07:24:51;;;;;;;6.63;3.45;;;;;;;20.07;29.54;95049.44;5031386;28;20203;-75
2022/04/15 07:27:18;;;;;;;5.63;2.72;;;;;;;20.84;29.09;95051.31;5031377;28;20200;-75
2022/04/15 07:29:45;;;;;;;6.63;3.20;;;;;;;21.28;28.19;95049.28;5031224;28;20671;-77
2022/04/15 07:32:13;;;;;;;4.88;3.10;;;;;;;20.95;28.31;95046.66;5031212;28;20303;-77
2022/04/15 07:34:40;;;;;;;5.82;3.20;;;;;;;21.14;28.77;95042.88;5030995;28;20287;-75
2022/04/15 07:37:07;;;;;;;5.45;3.20;;;;;;;20.96;28.21;95042.75;5030857;28;20573;-79
2022/04/15 07:39:34;;;;;;;4.18;2.90;;;;;;;20.27;28.74;95039.81;5030607;28;20232;-80
2022/04/15 07:42:02;;;;;;;5.93;3.08;;;;;;;19.18;30.19;95043.66;5031230;28;20624;-77
2022/04/15 07:44:30;;;;;;;4.30;3.25;;;;;;;19.60;30.45;95039.09;5031058;28;20196;-75
2022/04/15 07:46:57;;;;;;;6.85;3.55;;;;;;;19.43;30.88;95043.19;5031260;28;20197;-77
2022/04/15 07:49:24;;;;;;;5.68;3.28;;;;;;;19.67;30.48;95034.50;5032698;28;20227;-75
2022/04/15 07:51:51;;;;;;;7.90;3.38;;;;;;;19.44;30.86;95047.53;5042370;28;20204;-75
2022/04/15 07:54:18;;;;;;;5.55;3.30;;;;;;;20.56;29.88;95043.63;5030848;28;20208;-75
2022/04/15 07:56:44;;;;;;;7.05;3.78;;;;;;;19.74;30.30;95039.28;5030539;28;20208;-76
2022/04/15 07:59:12;;;;;;;5.75;3.20;;;;;;;18.70;31.74;95041.81;5031944;28;20708;-76
2022/04/15 08:01:40;;;;;;;6.00;3.50;;;;;;;19.98;30.72;95024.19;5035254;28;20201;-74
2022/04/15 08:04:07;;;;;;;4.65;3.30;;;;;;;20.13;29.94;95028.66;5034750;28;20208;-75
2022/04/15 08:06:34;;;;;;;4.72;3.30;;;;;;;20.33;30.63;95035.56;5034696;28;20212;-75
2022/04/15 08:09:01;;;;;;;6.82;3.63;;;;;;;19.81;30.06;95031.13;5033989;28;20695;-76
2022/04/15 08:11:28;;;;;;;7.22;4.00;;;;;;;18.60;32.24;95031.44;5034944;28;20200;-73
2022/04/15 08:13:55;;;;;;;6.38;3.38;;;;;;;18.75;31.82;95027.75;5034713;28;20564;-74
2022/04/15 08:16:25;;;;;;;6.75;3.58;;;;;;;18.57;31.74;95029.41;5034802;28;20270;-76
2022/04/15 08:18:54;;;;;;;4.45;2.88;;;;;;;19.02;31.45;95025.78;5034452;28;20788;-75
2022/04/15 08:21:24;;;;;;;6.22;3.58;;;;;;;18.35;32.36;95026.31;5034338;28;20204;-76
2022/04/15 08:23:51;;;;;;;8.93;3.67;;;;;;;18.69;32.48;95024.53;5038996;28;20250;-75
2022/04/15 08:26:18;;;;;;;5.30;3.22;;;;;;;19.27;31.74;95015.13;5041877;28;20204;-75
2022/04/15 08:28:45;;;;;;;6.70;3.70;;;;;;;19.11;31.30;95021.59;5034466;28;20215;-73
2022/04/15 08:31:12;;;;;;;7.05;3.85;;;;;;;18.25;32.19;95026.94;5034702;28;20203;-76
2022/04/15 08:33:40;;;;;;;8.27;4.13;;;;;;;18.94;32.63;95027.66;5033882;28;20207;-76
2022/04/15 08:36:08;;;;;;;4.45;2.75;;;;;;;18.84;31.06;95020.06;5033839;28;20212;-74
2022/04/15 08:38:35;;;;;;;6.70;3.60;;;;;;;19.34;30.50;95016.00;5034063;28;20616;-74
2022/04/15 08:41:02;;;;;;;8.35;3.42;;;;;;;19.84;30.59;95000.88;5033755;28;20224;-74
2022/04/15 08:43:30;;;;;;;6.47;3.95;;;;;;;19.41;30.35;95015.28;5033328;28;20240;-75
2022/04/15 08:45:57;;;;;;;5.80;3.55;;;;;;;18.90;30.78;95007.56;5033503;28;20200;-73
2022/04/15 08:48:25;;;;;;;6.03;3.47;;;;;;;18.65;31.33;95001.72;5034143;28;20239;-74
2022/04/15 08:50:54;;;;;;;7.53;4.03;;;;;;;18.80;30.96;94997.25;5034250;28;20458;-74
2022/04/15 08:53:22;;;;;;;5.88;3.00;;;;;;;19.27;30.99;94993.16;5033786;28;20263;-73
2022/04/15 08:55:49;;;;;;;4.68;2.95;;;;;;;18.11;31.78;95002.03;5034561;28;20212;-73
2022/04/15 08:58:16;;;;;;;5.18;3.08;;;;;;;17.92;32.11;94996.59;5045740;28;20200;-74
2022/04/15 09:00:43;;;;;;;3.65;2.97;;;;;;;18.30;31.03;94993.72;5033498;28;20236;-74
2022/04/15 09:03:10;;;;;;;4.15;2.60;;;;;;;19.22;30.34;94977.78;5033943;28;20208;-76
2022/04/15 09:05:37;;;;;;;3.78;2.30;;;;;;;18.87;30.22;94986.34;5033712;28;20203;-77
2022/04/15 09:08:07;;;;;;;3.15;2.60;;;;;;;18.85;30.37;94983.22;5033525;28;20254;-74
2022/04/15 09:10:36;;;;;;;4.00;2.47;;;;;;;18.96;30.16;94977.84;5032149;28;20201;-74
2022/04/15 09:13:04;;;;;;;3.42;2.28;;;;;;;19.25;29.97;94959.78;5033538;28;20231;-75
2022/04/15 09:15:32;;;;;;;2.78;2.15;;;;;;;19.42;29.12;94959.16;5033600;28;20239;-74
2022/04/15 09:18:01;;;;;;;2.67;1.95;;;;;;;18.97;29.71;94957.47;5033876;28;20215;-79
2022/04/15 09:20:33;;;;;;;3.55;2.20;;;;;;;18.93;29.34;94951.94;5033648;28;20235;-74
2022/04/15 09:23:10;;;;;;;2.85;1.95;;;;;;;19.67;29.97;94943.00;5033708;28;20205;-75
2022/04/15 09:25:39;;;;;;;3.55;2.10;;;;;;;20.12;29.75;94944.56;5046605;28;20196;-75
2022/04/15 09:28:07;;;;;;;5.28;2.35;;;;;;;19.90;27.86;94940.06;5033573;28;20300;-73
2022/04/15 09:30:39;;;;;;;2.28;1.90;;;;;;;19.57;28.68;94940.91;5033158;28;20761;-76
2022/04/15 09:33:06;;;;;;;2.42;1.80;;;;;;;19.56;29.10;94934.63;5033016;28;20196;-74
2022/04/15 09:35:33;;;;;;;4.00;2.30;;;;;;;19.47;28.38;94926.66;5033362;28;20204;-74
2022/04/15 09:38:03;;;;;;;4.25;2.15;;;;;;;20.13;28.17;94929.63;5032687;28;20212;-75
2022/04/15 09:40:35;;;;;;;4.88;1.98;;;;;;;20.00;28.69;94925.59;5032911;28;20315;-74
2022/04/15 09:43:06;;;;;;;4.22;2.50;;;;;;;19.27;28.96;94919.75;5032575;28;20228;-77
2022/04/15 09:45:34;;;;;;;5.43;2.90;;;;;;;19.54;29.00;94909.50;5033091;28;20247;-77
2022/04/15 09:48:03;;;;;;;3.58;2.15;;;;;;;20.25;28.73;94910.06;5032909;28;20687;-74
2022/04/15 09:50:34;;;;;;;5.00;2.10;;;;;;;20.08;28.10;94908.00;5032957;28;20258;-74
2022/04/15 09:53:09;;;;;;;3.05;2.10;;;;;;;20.31;29.12;94908.56;5033205;28;20247;-75
2022/04/15 09:55:40;;;;;;;3.72;1.95;;;;;;;19.66;28.65;94906.47;5033194;28;20803;-74
2022/04/15 09:58:11;;;;;;;2.47;1.90;;;;;;;19.52;29.73;94900.84;5038598;28;20622;-79
2022/04/15 10:00:40;;;;;;;5.00;2.67;;;;;;;19.58;29.49;94893.81;5038780;28;20212;-75
2022/04/15 10:03:09;;;;;;;4.07;2.10;;;;;;;19.86;29.33;94885.81;5032700;28;20219;-73
2022/04/15 10:05:38;;;;;;;5.18;2.25;;;;;;;20.20;28.63;94880.19;5033898;28;20592;-75
2022/04/15 10:08:07;;;;;;;2.55;2.00;;;;;;;20.20;28.64;94875.47;5043968;28;20323;-76
2022/04/15 10:10:34;;;;;;;3.08;2.10;;;;;;;20.09;28.76;94862.81;5032475;28;20347;-74
2022/04/15 10:13:04;;;;;;;4.30;1.95;;;;;;;20.33;28.89;94862.19;5032348;28;20275;-75
2022/04/15 10:15:33;;;;;;;4.07;2.50;;;;;;;20.46;28.60;94860.72;5032420;28;20312;-73
2022/04/15 10:18:01;;;;;;;4.40;2.42;;;;;;;19.99;28.79;94858.81;5032093;28;20205;-76
2022/04/15 10:20:29;;;;;;;4.90;2.70;;;;;;;20.10;29.00;94853.38;5032376;28;20263;-77
2022/04/15 10:23:00;;;;;;;4.28;3.10;;;;;;;20.81;29.23;94849.09;5031562;28;20220;-75
2022/04/15 10:25:28;;;;;;;4.75;2.50;;;;;;;21.25;28.71;94840.59;5045192;28;20188;-74
2022/04/15 10:28:13;;;;;;;2.70;2.30;;;;;;;21.57;28.55;94842.63;5031664;28;20207;-75
2022/04/15 10:30:51;;;;;;;2.75;2.05;;;;;;;21.74;27.24;94833.56;5028401;28;20211;-75
2022/04/15 10:33:29;;;;;;;9.15;2.38;;;;;;;21.24;28.28;94836.25;5035822;28;20733;-73
2022/04/15 10:35:59;;;;;;;3.95;2.42;;;;;;;21.10;28.53;94819.66;5032295;28;20236;-75
2022/04/15 10:38:27;;;;;;;4.90;2.47;;;;;;;20.94;28.31;94830.25;5031848;28;20196;-78
2022/04/15 10:40:53;;;;;;;3.28;2.30;;;;;;;20.89;28.38;94827.88;5031353;28;20293;-75
2022/04/15 10:43:23;;;;;;;4.38;2.53;;;;;;;21.46;27.95;94812.25;5031628;28;20255;-79
2022/04/15 10:45:52;;;;;;;3.13;1.83;;;;;;;21.39;27.09;94812.28;5031689;28;20204;-75
2022/04/15 10:48:29;;;;;;;5.30;2.50;;;;;;;21.30;26.64;94813.84;5031996;28;20259;-78
2022/04/15 10:50:56;;;;;;;3.30;2.30;;;;;;;21.30;27.43;94803.59;5031647;28;20207;-79
2022/04/15 10:53:33;;;;;;;3.67;2.42;;;;;;;21.40;26.85;94807.56;5032142;28;20200;-78
2022/04/15 10:56:10;;;;;;;3.03;1.98;;;;;;;21.30;27.57;94802.81;5031835;28;20278;-78
2022/04/15 11:01:53;;;;;;;4.20;2.22;;;;;;;21.60;26.86;94800.47;4998710;28;20211;-74
2022/04/15 11:04:25;;;;;;;4.05;2.15;;;;;;;21.68;26.57;94795.75;5030682;28;20292;-76
2022/04/15 11:06:52;;;;;;;6.90;2.47;;;;;;;21.62;26.51;94792.59;5031101;28;20304;-76
2022/04/15 11:09:23;;;;;;;5.63;2.03;;;;;;;21.34;26.47;94792.56;5031109;28;20196;-78
2022/04/15 11:11:52;;;;;;;3.30;2.05;;;;;;;21.31;26.41;94787.88;5030934;28;20224;-78
2022/04/15 11:14:33;;;;;;;3.90;2.05;;;;;;;21.80;26.37;94787.88;5031142;28;20243;-77
2022/04/15 11:17:00;;;;;;;5.20;2.50;;;;;;;22.47;25.80;94778.66;5030710;28;20235;-75
2022/04/15 11:19:28;;;;;;;4.50;2.00;;;;;;;22.77;25.00;94761.63;5031137;28;20208;-73
2022/04/15 11:21:55;;;;;;;3.00;2.22;;;;;;;22.87;24.56;94766.28;5044648;28;20610;-76
2022/04/15 11:24:24;;;;;;;3.63;2.38;;;;;;;23.09;25.01;94771.72;5032250;28;20203;-75
2022/04/15 11:26:58;;;;;;;3.00;2.10;;;;;;;22.83;24.87;94771.03;5030582;28;20230;-75
2022/04/15 11:29:30;;;;;;;3.15;1.85;;;;;;;22.44;24.72;94765.66;5030787;28;20363;-75
2022/04/15 11:32:01;;;;;;;2.65;2.10;;;;;;;22.00;25.56;94776.44;5030414;28;20622;-74
2022/04/15 11:34:29;;;;;;;3.13;2.08;;;;;;;22.23;25.54;94771.25;5030648;28;20602;-77
2022/04/15 11:36:56;;;;;;;4.40;2.80;;;;;;;22.03;25.51;94767.34;5030774;28;20694;-76
2022/04/15 11:39:25;;;;;;;3.92;1.92;;;;;;;22.56;25.85;94758.91;5030898;28;20331;-75
2022/04/15 11:41:54;;;;;;;3.60;2.20;;;;;;;22.28;24.75;94757.81;5030393;28;20211;-78
2022/04/15 11:44:23;;;;;;;2.92;2.30;;;;;;;22.51;24.62;94757.38;5030104;28;20192;-76